TimeEST,TemperatureF,Dew PointF,Humidity,Sea Level PressureIn,VisibilityMPH,Wind Direction,Wind SpeedMPH,Gust SpeedMPH,PrecipitationIn,Events,Conditions,WindDirDegrees,DateUTC
12:18 AM,33.8,24.8,70,30.12,10.0,ESE,4.6,-,N/A,,Overcast,120,2012-11-06 05:18:00
12:38 AM,33.8,24.8,70,30.12,10.0,ESE,4.6,-,N/A,,Overcast,120,2012-11-06 05:38:00
12:58 AM,33.8,24.8,70,30.11,10.0,SSE,4.6,-,N/A,,Overcast,150,2012-11-06 05:58:00
1:18 AM,35.6,24.8,65,30.10,10.0,SE,4.6,-,N/A,,Overcast,130,2012-11-06 06:18:00
2:07 AM,35.6,26.6,70,30.09,10.0,SE,5.8,-,N/A,,Overcast,130,2012-11-06 07:07:00
2:44 AM,35.6,26.6,70,30.08,10.0,SE,4.6,-,N/A,,Overcast,130,2012-11-06 07:44:00
2:58 AM,35.6,26.6,70,30.08,10.0,SE,5.8,-,N/A,,Overcast,140,2012-11-06 07:58:00
3:27 AM,35.6,26.6,70,30.07,10.0,SSE,8.1,-,N/A,,Overcast,150,2012-11-06 08:27:00
3:38 AM,35.6,26.6,70,30.07,10.0,SE,4.6,-,N/A,,Overcast,130,2012-11-06 08:38:00
3:57 AM,35.6,26.6,70,30.06,10.0,SE,3.5,-,N/A,,Overcast,130,2012-11-06 08:57:00
4:18 AM,35.6,28.4,75,30.05,10.0,SE,3.5,-,N/A,,Overcast,140,2012-11-06 09:18:00
4:38 AM,35.6,28.4,75,30.05,10.0,SE,3.5,-,N/A,,Overcast,130,2012-11-06 09:38:00
4:58 AM,35.6,-9999,N/A,-9999,10.0,SSE,4.6,-,N/A,,Overcast,150,2012-11-06 09:58:00
6:18 AM,35.6,30.2,81,30.01,10.0,Calm,Calm,-,N/A,,Overcast,0,2012-11-06 11:18:00
6:38 AM,35.6,30.2,81,30.01,10.0,SSE,4.6,-,N/A,,Overcast,150,2012-11-06 11:38:00
6:58 AM,37.4,30.2,75,30.00,10.0,SE,3.5,-,N/A,,Overcast,140,2012-11-06 11:58:00
7:24 AM,37.4,28.4,70,30.00,10.0,SSE,3.5,-,N/A,,Overcast,160,2012-11-06 12:24:00
7:38 AM,-9999,-9999,N/A,-9999,-9999.0,SSE,4.6,-,N/A,,Unknown,150,2012-11-06 12:38:00
7:58 AM,39.2,30.2,70,30.00,10.0,South,4.6,-,N/A,,Overcast,180,2012-11-06 12:58:00
8:18 AM,39.2,28.4,65,30.01,10.0,South,6.9,-,N/A,,Overcast,180,2012-11-06 13:18:00
8:58 AM,39.2,28.4,65,30.01,10.0,SSE,5.8,-,N/A,,Overcast,160,2012-11-06 13:58:00
9:18 AM,39.2,28.4,65,30.01,10.0,South,6.9,-,N/A,,Overcast,170,2012-11-06 14:18:00
9:38 AM,39.2,28.4,65,30.00,10.0,South,8.1,-,N/A,,Overcast,170,2012-11-06 14:38:00
9:58 AM,39.2,28.4,65,30.00,10.0,SSE,9.2,16.1,N/A,,Overcast,160,2012-11-06 14:58:00
10:22 AM,39.2,28.4,65,30.00,10.0,SSE,10.4,16.1,N/A,,Overcast,150,2012-11-06 15:22:00
10:40 AM,39.2,28.4,65,30.00,10.0,SSE,10.4,16.1,N/A,,Overcast,160,2012-11-06 15:40:00
11:38 AM,39.2,28.4,65,29.99,10.0,South,8.1,19.6,N/A,,Overcast,180,2012-11-06 16:38:00
11:58 AM,39.2,28.4,65,29.99,10.0,South,8.1,17.3,N/A,,Overcast,170,2012-11-06 16:58:00
12:18 PM,39.2,26.6,61,29.98,10.0,SSE,8.1,-,N/A,,Overcast,160,2012-11-06 17:18:00
12:38 PM,41.0,26.6,57,29.97,10.0,SSE,10.4,17.3,N/A,,Overcast,160,2012-11-06 17:38:00
1:04 PM,-9999,-9999,N/A,-9999,-9999.0,North,-9999.0,-,N/A,,Unknown,0,2012-11-06 18:04:00
1:38 PM,41.0,26.6,57,29.96,10.0,SSE,11.5,16.1,N/A,,Overcast,160,2012-11-06 18:38:00
1:58 PM,41.0,28.4,61,29.95,10.0,SSE,6.9,-,N/A,,Overcast,160,2012-11-06 18:58:00
2:18 PM,41.0,28.4,61,29.95,10.0,South,9.2,-,N/A,,Overcast,190,2012-11-06 19:18:00
2:38 PM,41.0,-9999,N/A,-9999,10.0,SSE,6.9,-,N/A,,Overcast,160,2012-11-06 19:38:00
3:03 PM,41.0,28.4,61,29.94,10.0,South,9.2,-,N/A,,Overcast,180,2012-11-06 20:03:00
4:03 PM,41.0,32.0,70,-9999,10.0,SSE,6.9,-,N/A,,Overcast,160,2012-11-06 21:03:00
4:18 PM,41.0,30.2,65,29.95,10.0,SE,4.6,-,N/A,,Overcast,140,2012-11-06 21:18:00
4:38 PM,41.0,30.2,65,29.95,10.0,South,6.9,-,N/A,,Overcast,170,2012-11-06 21:38:00
5:36 PM,-9999,-9999,N/A,-9999,0.9,North,-9999.0,-,N/A,,Unknown,0,2012-11-06 22:36:00
5:38 PM,41.0,30.2,65,29.95,10.0,SSE,4.6,-,N/A,,Overcast,160,2012-11-06 22:38:00
6:02 PM,-9999,-9999,N/A,-9999,0.9,North,-9999.0,-,N/A,,Unknown,0,2012-11-06 23:02:00
6:20 PM,41.0,30.2,65,29.96,10.0,SSE,8.1,-,N/A,,Overcast,150,2012-11-06 23:20:00
6:38 PM,41.0,30.2,65,29.96,10.0,SE,8.1,-,N/A,,Overcast,140,2012-11-06 23:38:00
7:25 PM,41.0,30.2,65,29.97,10.0,SE,9.2,-,N/A,,Overcast,130,2012-11-07 00:25:00
7:38 PM,-9999,-9999,N/A,-9999,-9999.0,North,-9999.0,-,N/A,,Unknown,0,2012-11-07 00:38:00
7:58 PM,39.2,30.2,70,29.97,10.0,SE,5.8,-,N/A,,Overcast,130,2012-11-07 00:58:00
8:38 PM,-9999,-9999,N/A,-9999,10.0,SSE,6.9,-,N/A,,Scattered Clouds,150,2012-11-07 01:38:00
8:58 PM,39.2,30.2,70,29.98,10.0,SE,5.8,-,N/A,,Overcast,130,2012-11-07 01:58:00
9:18 PM,39.2,30.2,70,29.98,10.0,SE,5.8,-,N/A,,Overcast,140,2012-11-07 02:18:00
9:38 PM,39.2,30.2,70,-9999,10.0,SE,9.2,-,N/A,,Overcast,140,2012-11-07 02:38:00
10:01 PM,39.2,30.2,70,29.99,10.0,SE,5.8,-,N/A,,Overcast,140,2012-11-07 03:01:00
10:23 PM,39.2,30.2,70,29.99,10.0,SE,6.9,-,N/A,,Overcast,130,2012-11-07 03:23:00
10:38 PM,39.2,30.2,70,29.99,10.0,SE,4.6,-,N/A,,Overcast,130,2012-11-07 03:38:00
10:58 PM,39.2,30.2,70,29.99,10.0,SSE,5.8,-,N/A,,Overcast,160,2012-11-07 03:58:00
11:18 PM,39.2,30.2,70,29.99,10.0,SSE,6.9,-,N/A,,Overcast,160,2012-11-07 04:18:00